TimeICT,TemperatureF,Dew PointF,Humidity,Sea Level PressureIn,VisibilityMPH,Wind Direction,Wind SpeedMPH,Gust SpeedMPH,PrecipitationIn,Events,Conditions,WindDirDegrees,DateUTC
7:00 AM,75.2,71.6,89,29.77,3.7,NNW,11.5,-,N/A,Rain,Light Rain,330,2012-10-07 00:00:00
7:30 AM,77.0,71.6,83,29.77,4.3,NNW,16.1,-,N/A,Rain,Light Rain,340,2012-10-07 00:30:00
8:00 AM,77.0,71.6,83,29.80,5.0,North,12.7,-,N/A,,Mostly Cloudy,350,2012-10-07 01:00:00
8:30 AM,77.0,71.6,83,29.80,5.6,North,8.1,-,N/A,,Mostly Cloudy,350,2012-10-07 01:30:00
9:00 AM,78.8,71.6,78,29.80,5.6,North,10.4,-,N/A,,Mostly Cloudy,350,2012-10-07 02:00:00
9:30 AM,77.0,71.6,83,29.80,5.0,NNW,10.4,-,N/A,Rain,Rain,340,2012-10-07 02:30:00
10:00 AM,77.0,71.6,83,29.80,5.0,NNW,10.4,-,N/A,Rain,Rain,340,2012-10-07 03:00:00
10:30 AM,78.8,73.4,83,29.80,5.0,NNW,10.4,-,N/A,Rain,Rain,340,2012-10-07 03:30:00
11:00 AM,78.8,73.4,83,29.77,5.0,North,10.4,-,N/A,Rain,Rain,350,2012-10-07 04:00:00
11:30 AM,78.8,73.4,83,29.77,5.0,North,4.6,-,N/A,Rain,Rain,350,2012-10-07 04:30:00
12:00 PM,78.8,73.4,83,29.74,5.0,North,4.6,-,N/A,Rain,Rain,350,2012-10-07 05:00:00
12:30 PM,80.6,73.4,79,29.74,5.0,North,15.0,-,N/A,,Mostly Cloudy,360,2012-10-07 05:30:00
1:00 PM,80.6,71.6,74,29.71,5.0,North,9.2,-,N/A,,Mostly Cloudy,360,2012-10-07 06:00:00
1:30 PM,78.8,73.4,83,29.71,3.7,North,9.2,-,N/A,Rain,Rain,10,2012-10-07 06:30:00
2:00 PM,77.0,75.2,94,29.71,5.0,NNE,3.5,-,N/A,Rain,Rain,30,2012-10-07 07:00:00
2:30 PM,78.8,75.2,89,29.68,3.7,NNE,3.5,-,N/A,Rain,Rain Showers,30,2012-10-07 07:30:00
3:00 PM,77.0,75.2,94,29.68,1.9,NNE,9.2,-,N/A,Rain,Rain,30,2012-10-07 08:00:00
3:30 PM,77.0,75.2,94,29.68,4.3,North,9.2,-,N/A,Rain,Light Rain,360,2012-10-07 08:30:00
4:00 PM,78.8,75.2,89,29.68,5.0,North,9.2,-,N/A,Rain,Light Rain,360,2012-10-07 09:00:00
4:30 PM,80.6,75.2,84,29.68,5.0,NNW,8.1,-,N/A,Rain,Light Rain,330,2012-10-07 09:30:00
5:00 PM,80.6,75.2,84,29.68,5.6,North,9.2,-,N/A,,Mostly Cloudy,350,2012-10-07 10:00:00
5:30 PM,78.8,75.2,89,29.68,4.3,NE,2.3,-,N/A,Rain,Light Rain,50,2012-10-07 10:30:00
6:00 PM,78.8,75.2,89,29.68,4.3,NNE,6.9,-,N/A,Rain,Light Rain,30,2012-10-07 11:00:00
6:30 PM,78.8,75.2,89,29.68,4.3,NE,9.2,-,N/A,Rain,Light Rain,50,2012-10-07 11:30:00
7:00 PM,77.0,75.2,94,29.71,4.3,NE,6.9,-,N/A,Rain,Light Rain,40,2012-10-07 12:00:00
7:30 PM,77.0,75.2,94,29.71,4.3,ENE,6.9,-,N/A,Rain,Light Rain,70,2012-10-07 12:30:00
8:00 PM,78.8,75.2,89,29.74,4.3,East,10.4,-,N/A,Rain,Light Rain,80,2012-10-07 13:00:00
8:30 PM,77.0,75.2,94,29.74,5.0,East,8.1,-,N/A,,Mostly Cloudy,80,2012-10-07 13:30:00
9:00 PM,77.0,75.2,94,29.74,5.0,East,8.1,-,N/A,,Mostly Cloudy,80,2012-10-07 14:00:00
10:00 PM,77.0,75.2,94,29.77,5.0,East,9.2,-,N/A,Rain,Rain,100,2012-10-07 15:00:00
10:30 PM,77.0,75.2,94,29.74,5.0,East,9.2,-,N/A,Rain,Light Rain,90,2012-10-07 15:30:00
11:00 PM,77.0,75.2,94,29.77,5.0,ESE,9.2,-,N/A,Rain,Light Rain,120,2012-10-07 16:00:00